createdAt,value
2018-04-27T00:01:31.479Z,3.27
2018-04-27T00:03:59.726Z,3.93
2018-04-27T00:06:27.988Z,3.20
2018-04-27T00:08:56.269Z,3.03
2018-04-27T00:11:24.528Z,3.63
2018-04-27T00:13:52.797Z,4.03
2018-04-27T00:16:21.050Z,2.97
2018-04-27T00:18:49.311Z,2.83
2018-04-27T00:21:18.343Z,3.40
2018-04-27T00:23:46.602Z,4.53
2018-04-27T00:26:14.859Z,4.27
2018-04-27T00:28:43.119Z,3.43
2018-04-27T00:31:12.163Z,2.83
2018-04-27T00:33:40.436Z,3.10
2018-04-27T00:36:08.735Z,3.00
2018-04-27T00:38:37.764Z,3.37
2018-04-27T00:41:06.042Z,3.30
2018-04-27T00:43:35.059Z,3.40
2018-04-27T00:46:03.340Z,3.47
2018-04-27T00:48:31.602Z,2.80
2018-04-27T00:50:59.868Z,3.40
2018-04-27T00:53:28.883Z,3.20
2018-04-27T00:55:57.278Z,3.27
2018-04-27T00:58:25.545Z,4.50
2018-04-27T01:00:53.821Z,3.77
2018-04-27T01:03:22.088Z,3.20
2018-04-27T01:05:50.337Z,3.20
2018-04-27T01:08:19.362Z,3.87
2018-04-27T01:10:47.607Z,3.20
2018-04-27T01:13:16.644Z,3.30
2018-04-27T01:15:44.899Z,3.30
2018-04-27T01:18:13.161Z,2.70
2018-04-27T01:20:41.437Z,3.47
2018-04-27T01:23:09.688Z,2.87
2018-04-27T01:25:37.943Z,2.80
2018-04-27T01:28:06.196Z,2.90
2018-04-27T01:30:34.455Z,3.77
2018-04-27T01:33:02.741Z,4.00
2018-04-27T01:35:31.029Z,3.10
2018-04-27T01:37:59.306Z,3.83
2018-04-27T01:40:27.547Z,3.90
2018-04-27T01:42:55.808Z,3.90
2018-04-27T01:45:24.846Z,4.70
2018-04-27T01:47:53.188Z,3.00
2018-04-27T01:50:21.409Z,3.53
2018-04-27T01:52:49.673Z,3.30
2018-04-27T01:55:17.951Z,3.73
2018-04-27T01:57:46.231Z,3.00
2018-04-27T02:00:14.508Z,3.30
2018-04-27T02:02:42.773Z,4.17
2018-04-27T02:05:11.050Z,3.33
2018-04-27T02:07:39.429Z,3.67
2018-04-27T02:10:07.707Z,4.03
2018-04-27T02:12:35.983Z,2.93
2018-04-27T02:15:04.249Z,3.57
2018-04-27T02:17:32.498Z,2.93
2018-04-27T02:20:01.618Z,3.40
2018-04-27T02:22:29.874Z,3.07
2018-04-27T02:24:58.900Z,2.47
2018-04-27T02:27:27.173Z,3.37
2018-04-27T02:29:56.081Z,2.97
2018-04-27T02:32:24.388Z,3.60
2018-04-27T02:34:52.642Z,3.07
2018-04-27T02:37:20.903Z,3.10
2018-04-27T02:39:54.243Z,3.30
2018-04-27T02:42:22.768Z,3.80
2018-04-27T02:44:51.011Z,3.30
2018-04-27T02:47:20.058Z,3.67
2018-04-27T02:49:48.332Z,3.30
2018-04-27T02:52:16.599Z,3.50
2018-04-27T02:54:44.866Z,3.60
2018-04-27T02:57:13.128Z,4.43
2018-04-27T02:59:41.435Z,4.43
2018-04-27T03:02:09.700Z,3.33
2018-04-27T03:04:37.965Z,2.73
2018-04-27T03:07:06.242Z,2.90
2018-04-27T03:09:34.496Z,4.67
2018-04-27T03:12:03.520Z,3.47
2018-04-27T03:14:31.788Z,3.80
2018-04-27T03:17:00.048Z,2.80
2018-04-27T03:19:28.302Z,2.37
2018-04-27T03:21:57.328Z,3.53
2018-04-27T03:24:25.606Z,2.70
2018-04-27T03:26:53.866Z,3.00
2018-04-27T03:29:22.123Z,3.00
2018-04-27T03:31:51.151Z,3.00
2018-04-27T03:34:19.454Z,3.47
2018-04-27T03:36:47.828Z,3.20
2018-04-27T03:39:16.087Z,3.53
2018-04-27T03:41:44.361Z,3.07
2018-04-27T03:44:12.615Z,4.50
2018-04-27T03:46:40.908Z,3.70
2018-04-27T03:49:09.195Z,3.53
2018-04-27T03:51:37.452Z,3.50
2018-04-27T03:54:05.726Z,3.23
2018-04-27T03:56:34.778Z,3.23
2018-04-27T03:59:03.040Z,3.73
2018-04-27T04:01:43.244Z,4.20
2018-04-27T04:04:24.599Z,3.63
2018-04-27T04:06:52.865Z,2.80
2018-04-27T04:09:21.120Z,3.70
2018-04-27T04:11:49.398Z,3.40
2018-04-27T04:14:17.689Z,3.47
2018-04-27T04:16:45.931Z,4.27
2018-04-27T04:19:14.203Z,3.40
2018-04-27T04:21:42.471Z,3.30
2018-04-27T04:24:10.755Z,4.30
2018-04-27T04:26:39.001Z,3.90
2018-04-27T04:29:08.050Z,3.67
2018-04-27T04:31:36.339Z,3.50
2018-04-27T04:34:04.605Z,3.40
2018-04-27T04:36:32.949Z,4.10
2018-04-27T04:39:01.225Z,4.03
2018-04-27T04:41:29.510Z,3.63
2018-04-27T04:43:57.788Z,4.30
2018-04-27T04:46:26.052Z,3.70
2018-04-27T04:48:54.310Z,3.13
2018-04-27T04:51:22.738Z,3.83
2018-04-27T04:53:51.011Z,3.50
2018-04-27T04:56:19.299Z,5.63
2018-04-27T04:58:47.615Z,4.60
2018-04-27T05:01:15.863Z,4.67
2018-04-27T05:03:44.117Z,4.10
2018-04-27T05:06:12.365Z,4.27
2018-04-27T05:08:40.628Z,4.80
2018-04-27T05:11:09.035Z,3.83
2018-04-27T05:13:37.371Z,4.70
2018-04-27T05:16:06.464Z,4.70
2018-04-27T05:18:53.758Z,4.83
2018-04-27T05:21:22.034Z,4.57
2018-04-27T05:23:50.333Z,3.60
2018-04-27T05:26:19.350Z,4.53
2018-04-27T05:28:47.633Z,4.10
2018-04-27T05:31:24.778Z,5.20
2018-04-27T05:33:53.245Z,4.37
2018-04-27T05:36:21.548Z,4.90
2018-04-27T05:38:50.581Z,5.23
2018-04-27T05:41:18.980Z,5.50
2018-04-27T05:43:47.266Z,6.33
2018-04-27T05:46:15.592Z,4.77
2018-04-27T05:48:44.634Z,5.20
2018-04-27T05:51:12.891Z,4.87
2018-04-27T05:53:41.164Z,4.50
2018-04-27T05:56:09.458Z,5.30
2018-04-27T05:58:37.742Z,4.20
2018-04-27T06:01:06.011Z,5.13
2018-04-27T06:03:46.513Z,4.20
2018-04-27T06:06:15.562Z,5.50
2018-04-27T06:08:43.957Z,4.40
2018-04-27T06:11:12.293Z,5.57
2018-04-27T06:13:40.644Z,4.43
2018-04-27T06:16:08.979Z,5.07
2018-04-27T06:18:37.873Z,4.20
2018-04-27T06:21:06.171Z,4.87
2018-04-27T06:23:34.417Z,5.00
2018-04-27T06:26:02.685Z,4.20
2018-04-27T06:28:33.822Z,4.67
2018-04-27T06:31:02.071Z,4.10
2018-04-27T06:33:31.095Z,4.50
2018-04-27T06:35:59.456Z,4.10
2018-04-27T06:38:27.756Z,4.60
2018-04-27T06:40:56.113Z,4.30
2018-04-27T06:43:24.420Z,4.90
2018-04-27T06:45:52.723Z,4.10
2018-04-27T06:48:21.643Z,4.10
2018-04-27T06:50:50.685Z,4.93
2018-04-27T06:53:19.189Z,5.17
2018-04-27T06:55:47.527Z,3.23
2018-04-27T06:58:15.801Z,3.53
2018-04-27T07:00:44.087Z,3.90
2018-04-27T07:03:12.353Z,3.83
2018-04-27T07:05:40.663Z,3.50
2018-04-27T07:08:09.014Z,4.50
2018-04-27T07:10:37.301Z,3.03
2018-04-27T07:13:05.546Z,2.90
2018-04-27T07:15:34.743Z,3.50
2018-04-27T07:18:03.019Z,4.90
2018-04-27T07:20:31.303Z,4.20
2018-04-27T07:22:59.572Z,3.47
2018-04-27T07:25:27.842Z,3.30
2018-04-27T07:27:56.912Z,3.93
2018-04-27T07:30:25.181Z,3.80
2018-04-27T07:32:53.531Z,3.33
2018-04-27T07:35:21.832Z,3.17
2018-04-27T07:37:50.317Z,2.90
2018-04-27T07:40:18.593Z,4.70
2018-04-27T07:42:46.904Z,3.77
2018-04-27T07:45:15.229Z,3.10
2018-04-27T07:47:43.564Z,3.50
2018-04-27T07:50:12.816Z,3.40
2018-04-27T07:52:41.096Z,4.57
2018-04-27T07:55:09.442Z,3.60
2018-04-27T07:57:37.747Z,3.47
2018-04-27T08:00:06.097Z,4.20
2018-04-27T08:02:34.409Z,3.23
2018-04-27T08:05:02.767Z,4.17
2018-04-27T08:07:31.059Z,3.43
2018-04-27T08:09:59.359Z,3.10
2018-04-27T08:12:28.428Z,3.23
2018-04-27T08:14:56.810Z,3.17
2018-04-27T08:17:26.622Z,2.70
2018-04-27T08:19:54.964Z,3.30
2018-04-27T08:22:23.262Z,3.10
2018-04-27T08:24:51.642Z,2.63
2018-04-27T08:27:20.037Z,2.80
2018-04-27T08:29:48.586Z,2.73
2018-04-27T08:32:16.926Z,3.50
2018-04-27T08:34:45.995Z,2.70
2018-04-27T08:37:15.106Z,2.90
2018-04-27T08:39:44.135Z,3.00
2018-04-27T08:42:12.408Z,2.80
2018-04-27T08:44:40.689Z,2.83
2018-04-27T08:47:09.002Z,2.10
2018-04-27T08:49:37.927Z,2.13
2018-04-27T08:52:06.992Z,3.83
2018-04-27T08:54:35.375Z,3.27
2018-04-27T08:57:03.717Z,1.93
2018-04-27T08:59:31.997Z,2.60
2018-04-27T09:02:00.383Z,2.00
2018-04-27T09:04:28.682Z,1.60
2018-04-27T09:06:56.991Z,2.47
2018-04-27T09:09:25.293Z,2.10
2018-04-27T09:11:53.701Z,2.30
2018-04-27T09:14:22.069Z,1.77
2018-04-27T09:16:50.377Z,1.60
2018-04-27T09:19:19.427Z,2.20
2018-04-27T09:21:47.700Z,2.10
2018-04-27T09:24:16.097Z,1.57
2018-04-27T09:26:45.376Z,1.90
2018-04-27T09:29:13.673Z,1.83
2018-04-27T09:31:41.946Z,1.47
2018-04-27T09:34:10.343Z,2.37
2018-04-27T09:36:38.618Z,2.50
2018-04-27T09:39:06.934Z,1.63
2018-04-27T09:41:37.592Z,1.87
2018-04-27T09:44:05.924Z,1.70
2018-04-27T09:46:34.226Z,2.07
2018-04-27T09:49:02.500Z,1.93
2018-04-27T09:51:31.534Z,1.97
2018-04-27T09:53:59.835Z,1.87
2018-04-27T09:56:28.108Z,2.13
2018-04-27T09:58:56.402Z,2.73
2018-04-27T10:01:25.430Z,1.90
2018-04-27T10:03:53.701Z,2.40
2018-04-27T10:06:22.006Z,2.40
2018-04-27T10:08:50.326Z,1.60
2018-04-27T10:11:19.544Z,1.80
2018-04-27T10:13:47.850Z,2.27
2018-04-27T10:16:16.150Z,1.83
2018-04-27T10:18:45.457Z,2.07
2018-04-27T10:21:15.357Z,1.47
2018-04-27T10:23:43.703Z,2.40
2018-04-27T10:26:12.056Z,2.20
2018-04-27T10:28:40.911Z,1.50
2018-04-27T10:31:09.276Z,1.87
2018-04-27T10:33:38.393Z,1.70
2018-04-27T10:36:06.685Z,1.80
2018-04-27T10:38:35.023Z,2.13
2018-04-27T10:41:03.313Z,2.03
2018-04-27T10:43:31.576Z,2.03
2018-04-27T10:46:00.765Z,2.27
2018-04-27T10:48:29.055Z,1.97
2018-04-27T10:50:57.344Z,1.33
2018-04-27T10:53:25.706Z,1.27
2018-04-27T10:55:54.058Z,1.90
2018-04-27T10:58:22.597Z,1.60
2018-04-27T11:00:50.898Z,1.87
2018-04-27T11:03:19.293Z,1.40
2018-04-27T11:05:47.530Z,1.33
2018-04-27T11:08:15.814Z,1.20
2018-04-27T11:10:44.124Z,1.80
2018-04-27T11:13:13.455Z,1.67
2018-04-27T11:15:41.716Z,1.43
2018-04-27T11:18:10.019Z,1.37
2018-04-27T11:20:38.316Z,1.43
2018-04-27T11:23:07.350Z,1.10
2018-04-27T11:25:35.648Z,1.20
2018-04-27T11:28:03.930Z,1.90
2018-04-27T11:30:32.229Z,1.20
2018-04-27T11:33:00.497Z,2.73
2018-04-27T11:35:28.777Z,2.10
2018-04-27T11:37:57.073Z,1.87
2018-04-27T11:40:25.369Z,1.93
2018-04-27T11:42:53.679Z,2.00
2018-04-27T11:45:22.046Z,1.73
2018-04-27T11:47:50.392Z,2.10
2018-04-27T11:50:18.671Z,1.87
2018-04-27T11:52:47.702Z,2.80
2018-04-27T11:55:16.105Z,1.10
2018-04-27T11:57:44.441Z,1.30
2018-04-27T12:00:12.801Z,1.83
2018-04-27T12:02:44.504Z,1.50
2018-04-27T12:05:12.881Z,1.40
2018-04-27T12:07:41.155Z,2.00
2018-04-27T12:10:09.426Z,2.20
2018-04-27T12:12:37.722Z,2.60
2018-04-27T12:15:06.006Z,1.60
2018-04-27T12:17:34.377Z,1.70
2018-04-27T12:20:03.354Z,1.47
2018-04-27T12:22:31.793Z,1.37
2018-04-27T12:25:00.072Z,1.60
2018-04-27T12:27:30.210Z,1.70
2018-04-27T12:29:58.486Z,1.90
2018-04-27T12:32:26.817Z,1.60
2018-04-27T12:34:55.102Z,1.70
2018-04-27T12:37:24.266Z,1.53
2018-04-27T12:39:53.389Z,1.80
2018-04-27T12:42:21.688Z,1.80
2018-04-27T12:44:50.047Z,2.10
2018-04-27T12:47:19.128Z,1.93
2018-04-27T12:49:47.444Z,2.13
2018-04-27T12:52:15.746Z,3.03
2018-04-27T12:54:44.015Z,2.00
2018-04-27T12:57:12.325Z,1.30
2018-04-27T12:59:40.607Z,1.83
2018-04-27T13:02:08.934Z,1.43
2018-04-27T13:04:37.235Z,1.10
2018-04-27T13:07:06.499Z,1.63
2018-04-27T13:09:34.853Z,1.73
2018-04-27T13:12:03.205Z,1.73
2018-04-27T13:14:31.843Z,1.77
2018-04-27T13:17:00.183Z,1.77
2018-04-27T13:19:29.239Z,1.43
2018-04-27T13:21:57.536Z,2.00
2018-04-27T13:24:25.938Z,1.80
2018-04-27T13:26:55.054Z,1.80
2018-04-27T13:29:24.092Z,1.80
2018-04-27T13:31:52.410Z,1.20
2018-04-27T13:34:20.677Z,1.43
2018-04-27T13:36:48.994Z,1.70
2018-04-27T13:39:17.299Z,1.80
2018-04-27T13:41:45.557Z,1.73
2018-04-27T13:44:13.896Z,1.07
2018-04-27T13:46:42.170Z,2.00
2018-04-27T13:49:11.215Z,2.03
2018-04-27T13:51:39.570Z,1.50
2018-04-27T13:54:07.988Z,1.33
2018-04-27T13:56:36.373Z,1.47
2018-04-27T13:59:04.712Z,1.30
2018-04-27T14:01:32.989Z,1.80
2018-04-27T14:04:01.344Z,1.50
2018-04-27T14:06:30.416Z,1.13
2018-04-27T14:08:58.718Z,2.03
2018-04-27T14:11:27.792Z,1.50
2018-04-27T14:13:57.415Z,1.43
2018-04-27T14:16:25.751Z,1.63
2018-04-27T14:18:54.034Z,1.43
2018-04-27T14:21:22.349Z,1.50
2018-04-27T14:23:52.127Z,1.77
2018-04-27T14:26:20.421Z,1.50
2018-04-27T14:28:49.492Z,1.53
2018-04-27T14:31:17.743Z,1.90
2018-04-27T14:33:46.108Z,1.30
2018-04-27T14:36:15.022Z,2.23
2018-04-27T14:38:43.304Z,2.00
2018-04-27T14:41:11.578Z,1.77
2018-04-27T14:43:39.867Z,1.57
2018-04-27T14:46:08.251Z,1.33
2018-04-27T14:48:36.688Z,2.07
2018-04-27T14:51:05.098Z,1.20
2018-04-27T14:53:33.386Z,1.40
2018-04-27T14:56:01.725Z,1.83
2018-04-27T14:58:30.046Z,1.20
2018-04-27T15:00:58.331Z,1.67
2018-04-27T15:03:28.111Z,1.37
2018-04-27T15:05:56.378Z,1.80
2018-04-27T15:08:24.673Z,1.83
2018-04-27T15:10:52.983Z,2.17
2018-04-27T15:13:22.041Z,1.70
2018-04-27T15:15:50.417Z,1.63
2018-04-27T15:18:18.741Z,1.00
2018-04-27T15:20:47.026Z,2.53
2018-04-27T15:23:15.307Z,2.67
2018-04-27T15:25:44.393Z,1.53
2018-04-27T15:28:13.468Z,1.80
2018-04-27T15:30:41.773Z,2.00
2018-04-27T15:33:10.791Z,1.83
2018-04-27T15:35:39.067Z,2.10
2018-04-27T15:38:07.346Z,1.77
2018-04-27T15:40:35.617Z,2.30
2018-04-27T15:43:03.915Z,2.20
2018-04-27T15:45:32.260Z,1.67
2018-04-27T15:48:00.526Z,1.40
2018-04-27T15:50:28.888Z,2.53
2018-04-27T15:52:57.953Z,1.20
2018-04-27T15:55:26.252Z,1.80
2018-04-27T15:57:54.519Z,1.60
2018-04-27T16:00:22.879Z,1.93
2018-04-27T16:02:51.176Z,1.87
2018-04-27T16:05:20.226Z,1.87
2018-04-27T16:07:48.584Z,2.17
2018-04-27T16:10:16.894Z,1.50
2018-04-27T16:12:45.326Z,1.70
2018-04-27T16:15:14.447Z,1.60
2018-04-27T16:17:42.789Z,1.70
2018-04-27T16:20:11.817Z,1.73
2018-04-27T16:22:40.107Z,2.20
2018-04-27T16:25:08.392Z,1.87
2018-04-27T16:27:36.689Z,2.00
2018-04-27T16:30:05.148Z,1.90
2018-04-27T16:32:33.463Z,1.50
2018-04-27T16:35:01.743Z,1.40
2018-04-27T16:37:30.114Z,1.50
2018-04-27T16:39:59.174Z,1.90
2018-04-27T16:42:27.558Z,1.40
2018-04-27T16:44:55.828Z,2.20
2018-04-27T16:47:24.095Z,2.10
2018-04-27T16:49:52.382Z,1.43
2018-04-27T16:52:20.662Z,1.77
2018-04-27T16:54:48.969Z,2.03
2018-04-27T16:57:17.240Z,2.70
2018-04-27T16:59:45.508Z,1.70
2018-04-27T17:02:13.766Z,2.17
2018-04-27T17:04:42.058Z,2.20
2018-04-27T17:07:10.345Z,1.50
2018-04-27T17:09:38.608Z,1.20
2018-04-27T17:12:06.868Z,1.43
2018-04-27T17:14:35.165Z,1.07
2018-04-27T17:17:05.018Z,2.23
2018-04-27T17:19:33.332Z,1.47
2018-04-27T17:22:01.587Z,2.30
2018-04-27T17:24:29.876Z,1.77
2018-04-27T17:26:58.152Z,1.83
2018-04-27T17:29:26.450Z,1.57
2018-04-27T17:31:54.736Z,1.67
2018-04-27T17:34:23.030Z,1.73
2018-04-27T17:36:51.445Z,1.60
2018-04-27T17:39:19.692Z,1.70
2018-04-27T17:41:48.742Z,2.30
2018-04-27T17:44:17.018Z,1.50
2018-04-27T17:46:45.323Z,1.50
2018-04-27T17:49:13.616Z,1.90
2018-04-27T17:51:42.051Z,1.80
2018-04-27T17:54:11.114Z,2.17
2018-04-27T17:56:39.457Z,1.50
2018-04-27T17:59:07.720Z,1.40
2018-04-27T18:01:36.078Z,1.80
2018-04-27T18:04:04.348Z,1.40
2018-04-27T18:06:32.642Z,1.90
2018-04-27T18:09:00.954Z,2.40
2018-04-27T18:11:30.029Z,2.20
2018-04-27T18:13:58.280Z,1.70
2018-04-27T18:16:26.540Z,2.73
2018-04-27T18:18:54.833Z,2.10
2018-04-27T18:21:23.110Z,1.80
2018-04-27T18:23:51.394Z,1.80
2018-04-27T18:26:19.669Z,2.10
2018-04-27T18:28:47.928Z,2.97
2018-04-27T18:31:16.217Z,2.50
2018-04-27T18:33:44.474Z,2.53
2018-04-27T18:36:12.743Z,3.20
2018-04-27T18:38:41.009Z,2.97
2018-04-27T18:41:09.339Z,4.30
2018-04-27T18:43:37.654Z,4.10
2018-04-27T18:46:06.672Z,3.90
2018-04-27T18:48:36.835Z,4.20
2018-04-27T18:51:05.884Z,4.30
2018-04-27T18:53:35.106Z,3.80
2018-04-27T18:56:04.653Z,2.33
2018-04-27T18:58:33.666Z,2.33
2018-04-27T19:01:01.944Z,2.40
2018-04-27T19:03:30.216Z,1.90
2018-04-27T19:05:58.496Z,2.07
2018-04-27T19:08:26.777Z,1.90
2018-04-27T19:10:55.037Z,2.20
2018-04-27T19:13:23.313Z,2.43
2018-04-27T19:15:52.365Z,2.50
2018-04-27T19:18:21.426Z,2.40
2018-04-27T19:20:49.721Z,3.00
2018-04-27T19:23:20.866Z,2.93
2018-04-27T19:25:52.119Z,3.07
2018-04-27T19:28:21.117Z,4.03
2018-04-27T19:30:49.388Z,2.77
2018-04-27T19:33:17.682Z,3.50
2018-04-27T19:35:45.949Z,3.00
2018-04-27T19:38:14.235Z,4.70
2018-04-27T19:40:42.557Z,4.43
2018-04-27T19:43:10.821Z,3.43
2018-04-27T19:45:39.136Z,3.90
2018-04-27T19:48:07.387Z,3.87
2018-04-27T19:50:37.595Z,4.10
2018-04-27T19:53:05.888Z,3.40
2018-04-27T19:55:34.166Z,3.30
2018-04-27T19:58:02.453Z,3.43
2018-04-27T20:00:34.124Z,3.90
2018-04-27T20:03:03.939Z,4.13
2018-04-27T20:05:32.200Z,3.43
2018-04-27T20:08:01.207Z,4.20
2018-04-27T20:10:33.173Z,3.20
2018-04-27T20:13:02.183Z,3.30
2018-04-27T20:15:37.416Z,3.27
2018-04-27T20:21:05.576Z,4.87
2018-04-27T20:23:35.854Z,4.73
2018-04-27T20:26:05.012Z,5.10
2018-04-27T20:28:35.132Z,5.00
2018-04-27T20:31:03.421Z,4.73
2018-04-27T20:33:31.754Z,4.70
2018-04-27T20:36:03.549Z,5.23
2018-04-27T20:38:31.888Z,3.50
2018-04-27T20:41:07.794Z,4.80
2018-04-27T20:43:36.114Z,3.60
2018-04-27T20:46:04.379Z,3.57
2018-04-27T20:48:32.640Z,3.87
2018-04-27T20:51:01.903Z,3.70
2018-04-27T20:53:31.765Z,3.97
2018-04-27T20:56:03.531Z,4.00
2018-04-27T20:58:31.800Z,3.27
2018-04-27T21:01:00.848Z,3.27
2018-04-27T21:03:29.117Z,4.00
2018-04-27T21:05:57.372Z,3.10
2018-04-27T21:08:25.712Z,4.30
2018-04-27T21:10:54.893Z,3.87
2018-04-27T21:13:23.181Z,3.53
2018-04-27T21:15:51.480Z,4.40
2018-04-27T21:18:20.555Z,4.00
2018-04-27T21:20:48.818Z,4.43
2018-04-27T21:23:17.133Z,4.83
2018-04-27T21:25:49.352Z,4.03
2018-04-27T21:28:24.847Z,3.53
2018-04-27T21:30:56.109Z,4.20
2018-04-27T21:33:37.470Z,3.60
2018-04-27T21:36:06.680Z,4.30
2018-04-27T21:41:47.626Z,3.70
2018-04-27T21:44:25.678Z,3.57
2018-04-27T21:47:10.955Z,3.67
2018-04-27T21:49:39.251Z,4.10
2018-04-27T21:52:08.428Z,3.60
2018-04-27T21:54:36.691Z,4.70
2018-04-27T21:57:17.093Z,4.57
2018-04-27T22:00:19.859Z,4.20
2018-04-27T22:02:50.056Z,4.53
2018-04-27T22:08:29.259Z,4.23
2018-04-27T22:10:59.350Z,4.73
2018-04-27T22:13:46.595Z,3.33
2018-04-27T22:16:23.548Z,3.63
2018-04-27T22:18:52.077Z,4.10
2018-04-27T22:21:20.337Z,3.43
2018-04-27T22:23:48.609Z,3.60
2018-04-27T22:26:17.680Z,3.03
2018-04-27T22:28:50.975Z,3.53
2018-04-27T22:31:28.556Z,3.60
2018-04-27T22:34:11.956Z,4.50
2018-04-27T22:36:43.907Z,3.63
2018-04-27T22:39:18.942Z,3.60
2018-04-27T22:41:54.046Z,4.03
2018-04-27T22:44:22.545Z,3.73
2018-04-27T22:46:53.811Z,3.47
2018-04-27T22:49:22.076Z,4.43
2018-04-27T22:51:50.341Z,4.00
2018-04-27T22:57:28.130Z,3.90
2018-04-27T23:00:04.547Z,4.23
2018-04-27T23:02:32.806Z,4.47
2018-04-27T23:05:16.685Z,4.50
2018-04-27T23:07:45.780Z,4.87
2018-04-27T23:10:15.079Z,3.63
2018-04-27T23:12:54.985Z,4.10
2018-04-27T23:15:23.441Z,4.70
2018-04-27T23:17:52.581Z,3.90
2018-04-27T23:20:22.472Z,3.63
2018-04-27T23:22:51.954Z,4.43
2018-04-27T23:25:21.196Z,4.70
2018-04-27T23:27:49.457Z,5.03
2018-04-27T23:30:23.469Z,3.90
2018-04-27T23:32:51.743Z,3.87
2018-04-27T23:35:20.897Z,4.47
2018-04-27T23:37:49.151Z,4.23
2018-04-27T23:40:18.219Z,3.90
2018-04-27T23:42:46.495Z,4.50
2018-04-27T23:45:14.762Z,4.50
2018-04-27T23:47:43.033Z,3.87
2018-04-27T23:50:12.966Z,4.70
2018-04-27T23:52:41.242Z,4.30
2018-04-27T23:55:09.518Z,4.33
2018-04-27T23:57:37.820Z,5.83
